Time;durP1;ratioP1;P1;durP2;ratioP2;P2;SDS_P1;SDS_P2;PMS_P1;PMS_P2;Temp;Humidity;BMP_temperature;BMP_pressure;BME280_temperature;BME280_humidity;BME280_pressure;Samples;Min_cycle;Max_cycle;Signal;HPM_P1;HPM_P2
2021/06/08 00:00:04;;;;;;;6.30;4.93;;;;;;;;;;1493079;39;20364;-58
2021/06/08 00:01:05;;;;;;;7.22;4.95;;;;;;;;;;1492907;39;20030;-58
2021/06/08 00:02:06;;;;;;;8.68;4.68;;;;;;;;;;1492759;39;20031;-58
2021/06/08 00:03:09;;;;;;;5.55;4.80;;;;;;;;;;1492970;39;20031;-58
2021/06/08 00:04:10;;;;;;;5.32;4.82;;;;;;;;;;1492795;39;20038;-58
2021/06/08 00:05:11;;;;;;;6.72;4.60;;;;;;;;;;1492911;39;20027;-58
2021/06/08 00:06:13;;;;;;;9.20;5.55;;;;;;;;;;1493075;39;20083;-58
2021/06/08 00:07:13;;;;;;;5.70;4.72;;;;;;;;;;1493058;39;20116;-58
2021/06/08 00:08:15;;;;;;;8.27;4.78;;;;;;;;;;1492908;39;20060;-58
2021/06/08 00:09:16;;;;;;;9.32;6.85;;;;;;;;;;1492776;39;20023;-58
2021/06/08 00:10:18;;;;;;;12.48;8.55;;;;;;;;;;1492714;39;20295;-58
2021/06/08 00:11:20;;;;;;;13.70;11.02;;;;;;;;;;1492902;39;20030;-55
2021/06/08 00:12:22;;;;;;;11.23;9.82;;;;;;;;;;1492877;39;20063;-55
2021/06/08 00:13:23;;;;;;;10.52;9.00;;;;;;;;;;1492997;39;20034;-57
2021/06/08 00:14:24;;;;;;;8.30;7.43;;;;;;;;;;1492746;39;20294;-55
2021/06/08 00:15:25;;;;;;;7.32;5.50;;;;;;;;;;1492747;39;20027;-58
2021/06/08 00:16:26;;;;;;;6.63;5.10;;;;;;;;;;1492883;39;20031;-58
2021/06/08 00:17:27;;;;;;;7.95;5.03;;;;;;;;;;1492921;39;20043;-57
2021/06/08 00:18:30;;;;;;;6.47;4.78;;;;;;;;;;1492828;39;20319;-58
2021/06/08 00:19:31;;;;;;;5.72;5.10;;;;;;;;;;1493055;39;20032;-58
2021/06/08 00:20:32;;;;;;;10.18;4.80;;;;;;;;;;1492844;39;20132;-57
2021/06/08 00:21:33;;;;;;;7.15;5.30;;;;;;;;;;1492746;39;20081;-58
2021/06/08 00:22:35;;;;;;;6.95;5.85;;;;;;;;;;1492697;39;20035;-58
2021/06/08 00:23:36;;;;;;;7.75;6.20;;;;;;;;;;1492829;39;20398;-58
2021/06/08 00:24:37;;;;;;;7.85;5.63;;;;;;;;;;1492795;39;20028;-58
2021/06/08 00:25:38;;;;;;;7.10;5.20;;;;;;;;;;1492388;39;20020;-58
2021/06/08 00:26:39;;;;;;;11.68;5.13;;;;;;;;;;1492258;39;20276;-58
2021/06/08 00:27:40;;;;;;;8.02;5.45;;;;;;;;;;1492749;39;20116;-58
2021/06/08 00:28:42;;;;;;;7.75;5.15;;;;;;;;;;1492803;39;20051;-58
2021/06/08 00:29:43;;;;;;;8.18;5.28;;;;;;;;;;1492807;39;20331;-58
2021/06/08 00:30:44;;;;;;;7.07;5.40;;;;;;;;;;1492661;39;20028;-58
2021/06/08 00:31:45;;;;;;;6.70;5.40;;;;;;;;;;1492704;39;20298;-58
2021/06/08 00:32:46;;;;;;;7.20;5.40;;;;;;;;;;1492650;39;20032;-58
2021/06/08 00:33:50;;;;;;;8.38;5.63;;;;;;;;;;1492657;39;20020;-58
2021/06/08 00:34:51;;;;;;;8.65;5.38;;;;;;;;;;1492564;39;20379;-58
2021/06/08 00:35:52;;;;;;;10.23;5.75;;;;;;;;;;1492872;39;20024;-58
2021/06/08 00:36:53;;;;;;;8.32;5.38;;;;;;;;;;1492830;39;20116;-58
2021/06/08 00:37:54;;;;;;;6.38;5.78;;;;;;;;;;1492676;39;20280;-60
2021/06/08 00:38:56;;;;;;;7.85;5.47;;;;;;;;;;1492837;39;20104;-58
2021/06/08 00:39:57;;;;;;;7.82;5.90;;;;;;;;;;1492643;39;20295;-58
2021/06/08 00:41:01;;;;;;;9.85;6.03;;;;;;;;;;1492618;39;20024;-58
2021/06/08 00:42:02;;;;;;;15.77;13.15;;;;;;;;;;1492670;39;20038;-58
2021/06/08 00:43:03;;;;;;;7.45;6.25;;;;;;;;;;1492622;39;20116;-59
2021/06/08 00:44:08;;;;;;;9.05;5.80;;;;;;;;;;1492633;39;20307;-58
2021/06/08 00:45:10;;;;;;;7.57;6.00;;;;;;;;;;1492586;39;20032;-59
2021/06/08 00:46:11;;;;;;;10.13;5.93;;;;;;;;;;1492629;39;20283;-58
2021/06/08 00:47:12;;;;;;;9.63;5.63;;;;;;;;;;1492632;39;20035;-58
2021/06/08 00:48:14;;;;;;;13.02;5.80;;;;;;;;;;1492630;39;20471;-58
2021/06/08 00:49:17;;;;;;;7.93;5.97;;;;;;;;;;1492586;39;20039;-58
2021/06/08 00:50:19;;;;;;;14.13;10.75;;;;;;;;;;1492641;39;20403;-58
2021/06/08 00:51:20;;;;;;;15.75;13.43;;;;;;;;;;1492793;39;20113;-58
2021/06/08 00:52:21;;;;;;;9.20;6.25;;;;;;;;;;1492561;39;20292;-58
2021/06/08 00:53:22;;;;;;;8.23;6.32;;;;;;;;;;1492583;39;20081;-58
2021/06/08 00:54:23;;;;;;;7.88;5.97;;;;;;;;;;1492664;39;20028;-58
2021/06/08 00:55:25;;;;;;;8.85;5.88;;;;;;;;;;1492781;39;20032;-58
2021/06/08 00:56:26;;;;;;;10.60;6.20;;;;;;;;;;1492753;39;20299;-58
2021/06/08 00:57:27;;;;;;;9.43;6.47;;;;;;;;;;1493263;39;20028;-58
2021/06/08 00:58:28;;;;;;;6.82;5.55;;;;;;;;;;1493138;39;20039;-58
2021/06/08 00:59:29;;;;;;;7.60;6.00;;;;;;;;;;1493211;39;20032;-58
2021/06/08 01:00:30;;;;;;;8.05;6.10;;;;;;;;;;1493256;39;20359;-58
2021/06/08 01:01:32;;;;;;;9.10;5.53;;;;;;;;;;1493259;39;20387;-58
2021/06/08 01:02:34;;;;;;;6.88;5.55;;;;;;;;;;1493471;39;20024;-58
2021/06/08 01:03:35;;;;;;;8.38;6.40;;;;;;;;;;1493407;39;20074;-58
2021/06/08 01:04:37;;;;;;;8.52;6.22;;;;;;;;;;1493412;39;20031;-58
2021/06/08 01:05:39;;;;;;;8.50;6.15;;;;;;;;;;1493415;39;20040;-58
2021/06/08 01:06:40;;;;;;;7.45;6.65;;;;;;;;;;1493066;39;20028;-58
2021/06/08 01:07:41;;;;;;;8.93;6.47;;;;;;;;;;1493463;39;20032;-59
2021/06/08 01:08:42;;;;;;;9.45;7.00;;;;;;;;;;1493246;39;20036;-58
2021/06/08 01:09:43;;;;;;;6.82;6.13;;;;;;;;;;1493369;39;20028;-58
2021/06/08 01:10:44;;;;;;;7.97;5.88;;;;;;;;;;1493122;39;20031;-58
2021/06/08 01:11:45;;;;;;;8.93;6.32;;;;;;;;;;1493394;39;20039;-58
2021/06/08 01:12:46;;;;;;;11.48;5.93;;;;;;;;;;1493360;39;20028;-58
2021/06/08 01:13:48;;;;;;;8.10;5.95;;;;;;;;;;1493169;39;20115;-58
2021/06/08 01:14:49;;;;;;;9.77;6.72;;;;;;;;;;1493205;39;20376;-58
2021/06/08 01:15:50;;;;;;;9.93;7.53;;;;;;;;;;1493412;39;20113;-58
2021/06/08 01:16:51;;;;;;;8.95;6.72;;;;;;;;;;1493302;39;20031;-58
2021/06/08 01:17:52;;;;;;;10.45;7.03;;;;;;;;;;1493275;39;20028;-58
2021/06/08 01:18:53;;;;;;;7.93;6.10;;;;;;;;;;1493287;39;20047;-58
2021/06/08 01:19:57;;;;;;;7.20;6.40;;;;;;;;;;1493380;39;20028;-58
2021/06/08 01:21:02;;;;;;;10.25;6.75;;;;;;;;;;1493150;39;20028;-58
2021/06/08 01:22:04;;;;;;;8.40;6.40;;;;;;;;;;1493160;39;20031;-58
2021/06/08 01:23:05;;;;;;;8.73;6.20;;;;;;;;;;1493341;39;20027;-58
2021/06/08 01:24:06;;;;;;;7.15;6.38;;;;;;;;;;1493311;39;20024;-58
2021/06/08 01:25:07;;;;;;;8.48;6.35;;;;;;;;;;1493352;39;20038;-58
2021/06/08 01:26:10;;;;;;;8.18;6.10;;;;;;;;;;1493397;39;20054;-58
2021/06/08 01:27:10;;;;;;;9.90;6.40;;;;;;;;;;1493125;39;20028;-58
2021/06/08 01:28:12;;;;;;;8.90;6.38;;;;;;;;;;1493254;39;20035;-58
2021/06/08 01:29:13;;;;;;;7.07;6.38;;;;;;;;;;1493334;39;20070;-59
2021/06/08 01:30:16;;;;;;;10.82;6.85;;;;;;;;;;1493252;39;20112;-58
2021/06/08 01:31:21;;;;;;;11.60;7.00;;;;;;;;;;1493211;39;20028;-58
2021/06/08 01:32:25;;;;;;;7.68;6.82;;;;;;;;;;1493311;39;20113;-58
2021/06/08 01:33:26;;;;;;;9.57;6.70;;;;;;;;;;1493152;39;20031;-58
2021/06/08 01:34:28;;;;;;;7.70;6.90;;;;;;;;;;1493360;39;20039;-58
2021/06/08 01:35:29;;;;;;;9.85;6.70;;;;;;;;;;1493181;39;20027;-58
2021/06/08 01:36:37;;;;;;;8.32;6.57;;;;;;;;;;1493332;39;20024;-58
2021/06/08 01:37:39;;;;;;;9.40;7.00;;;;;;;;;;1493241;39;20024;-58
2021/06/08 01:38:42;;;;;;;10.38;6.63;;;;;;;;;;1493319;39;20043;-58
2021/06/08 01:39:46;;;;;;;9.05;6.80;;;;;;;;;;1493329;39;20032;-58
2021/06/08 01:40:50;;;;;;;9.05;7.53;;;;;;;;;;1493157;39;20310;-58
2021/06/08 01:41:50;;;;;;;10.48;6.88;;;;;;;;;;1493151;39;20461;-58
2021/06/08 01:42:52;;;;;;;7.57;6.45;;;;;;;;;;1493171;39;20040;-58
2021/06/08 01:43:54;;;;;;;7.75;6.93;;;;;;;;;;1493199;39;20035;-58
2021/06/08 01:44:55;;;;;;;8.50;6.85;;;;;;;;;;1493388;39;20031;-58
2021/06/08 01:45:56;;;;;;;7.88;6.40;;;;;;;;;;1493141;39;20043;-58
2021/06/08 01:46:57;;;;;;;9.90;7.07;;;;;;;;;;1493193;39;20028;-58
2021/06/08 01:47:58;;;;;;;11.02;8.45;;;;;;;;;;1493110;39;20036;-58
2021/06/08 01:49:00;;;;;;;10.80;9.70;;;;;;;;;;1493299;39;20040;-58
2021/06/08 01:50:01;;;;;;;11.98;10.77;;;;;;;;;;1493137;39;20302;-58
2021/06/08 01:51:12;;;;;;;11.45;10.30;;;;;;;;;;1493220;39;20024;-58
2021/06/08 01:52:22;;;;;;;11.15;10.05;;;;;;;;;;1493371;39;20028;-58
2021/06/08 01:53:32;;;;;;;11.63;9.13;;;;;;;;;;1493162;39;20407;-58
2021/06/08 01:54:39;;;;;;;9.90;8.90;;;;;;;;;;1493259;39;20020;-58
2021/06/08 01:55:44;;;;;;;11.02;8.25;;;;;;;;;;1493133;39;20129;-58
2021/06/08 01:56:51;;;;;;;11.77;8.38;;;;;;;;;;1493104;39;20026;-57
2021/06/08 01:57:55;;;;;;;8.90;8.00;;;;;;;;;;1493273;39;20028;-58
2021/06/08 01:59:08;;;;;;;10.75;8.23;;;;;;;;;;1493327;39;20030;-58
2021/06/08 02:00:16;;;;;;;11.73;8.07;;;;;;;;;;1493146;39;20422;-58
2021/06/08 02:01:24;;;;;;;9.30;8.30;;;;;;;;;;1493123;39;20031;-58
2021/06/08 02:02:33;;;;;;;9.63;8.48;;;;;;;;;;1493386;39;20028;-58
2021/06/08 02:03:38;;;;;;;10.30;7.65;;;;;;;;;;1493315;39;20035;-58
2021/06/08 02:04:44;;;;;;;8.32;7.53;;;;;;;;;;1493047;39;20405;-58
2021/06/08 02:05:50;;;;;;;10.07;7.50;;;;;;;;;;1493377;39;20028;-58
2021/06/08 02:07:02;;;;;;;10.15;7.22;;;;;;;;;;1493307;39;20028;-58
2021/06/08 02:08:21;;;;;;;8.45;7.20;;;;;;;;;;1492870;39;20032;-58
2021/06/08 02:09:33;;;;;;;8.27;7.28;;;;;;;;;;1493107;39;20055;-58
2021/06/08 02:10:52;;;;;;;10.88;7.38;;;;;;;;;;1493116;39;20483;-58
2021/06/08 02:12:01;;;;;;;7.93;7.10;;;;;;;;;;1493101;39;20035;-58
2021/06/08 02:13:11;;;;;;;8.70;7.80;;;;;;;;;;1493151;39;20024;-58
2021/06/08 02:14:17;;;;;;;11.38;7.40;;;;;;;;;;1493262;39;20039;-58
2021/06/08 02:15:22;;;;;;;11.38;7.85;;;;;;;;;;1493230;39;20102;-58
2021/06/08 02:16:34;;;;;;;13.32;7.75;;;;;;;;;;1493152;39;20068;-58
2021/06/08 02:17:40;;;;;;;13.88;8.30;;;;;;;;;;1493292;39;20040;-58
2021/06/08 02:18:44;;;;;;;9.63;8.00;;;;;;;;;;1493251;39;20044;-58
2021/06/08 02:19:48;;;;;;;9.80;8.18;;;;;;;;;;1493085;39;20032;-58
2021/06/08 02:20:50;;;;;;;12.43;7.28;;;;;;;;;;1493475;39;20034;-58
2021/06/08 02:21:56;;;;;;;8.38;7.47;;;;;;;;;;1493072;39;20076;-58
2021/06/08 02:22:59;;;;;;;11.02;7.95;;;;;;;;;;1493090;39;20379;-58
2021/06/08 02:24:04;;;;;;;8.95;7.55;;;;;;;;;;1493025;39;20128;-58
2021/06/08 02:25:06;;;;;;;10.27;7.68;;;;;;;;;;1493197;39;20034;-58
2021/06/08 02:26:08;;;;;;;8.95;8.02;;;;;;;;;;1493032;39;20039;-58
2021/06/08 02:27:11;;;;;;;10.07;7.55;;;;;;;;;;1493024;39;20031;-58
2021/06/08 02:28:15;;;;;;;9.45;7.10;;;;;;;;;;1493225;39;20068;-58
2021/06/08 02:29:18;;;;;;;11.68;7.57;;;;;;;;;;1493035;39;20352;-58
2021/06/08 02:30:21;;;;;;;9.38;7.55;;;;;;;;;;1493016;39;20059;-58
2021/06/08 02:31:24;;;;;;;10.52;7.65;;;;;;;;;;1493039;39;20036;-59
2021/06/08 02:32:28;;;;;;;9.07;7.80;;;;;;;;;;1493210;39;20028;-58
2021/06/08 02:33:30;;;;;;;9.57;7.60;;;;;;;;;;1493223;39;20028;-58
2021/06/08 02:34:31;;;;;;;9.68;8.38;;;;;;;;;;1493054;39;20294;-58
2021/06/08 02:35:34;;;;;;;9.93;8.07;;;;;;;;;;1493034;39;20402;-58
2021/06/08 02:36:35;;;;;;;9.45;8.20;;;;;;;;;;1493247;39;20032;-58
2021/06/08 02:37:37;;;;;;;9.88;8.38;;;;;;;;;;1493297;39;20027;-58
2021/06/08 02:38:39;;;;;;;9.13;8.18;;;;;;;;;;1492951;39;20299;-58
2021/06/08 02:39:43;;;;;;;10.00;7.88;;;;;;;;;;1493066;39;20032;-57
2021/06/08 02:40:45;;;;;;;10.38;7.40;;;;;;;;;;1493139;39;20036;-58
2021/06/08 02:41:46;;;;;;;11.48;7.03;;;;;;;;;;1492975;39;20035;-58
2021/06/08 02:42:49;;;;;;;10.38;7.00;;;;;;;;;;1493180;39;20024;-58
2021/06/08 02:43:51;;;;;;;9.32;7.03;;;;;;;;;;1493182;39;20041;-57
2021/06/08 02:44:53;;;;;;;15.10;7.90;;;;;;;;;;1493026;39;20069;-58
2021/06/08 02:45:55;;;;;;;10.75;7.47;;;;;;;;;;1493046;39;20383;-58
2021/06/08 02:46:58;;;;;;;9.32;8.13;;;;;;;;;;1493159;39;20038;-58
2021/06/08 02:48:00;;;;;;;8.43;7.20;;;;;;;;;;1492922;39;20027;-59
2021/06/08 02:49:01;;;;;;;10.23;6.88;;;;;;;;;;1493016;39;20141;-58
2021/06/08 02:50:04;;;;;;;10.27;7.70;;;;;;;;;;1493206;39;20039;-58
2021/06/08 02:51:07;;;;;;;11.70;7.85;;;;;;;;;;1493192;39;20044;-58
2021/06/08 02:52:09;;;;;;;8.70;7.35;;;;;;;;;;1493112;39;20035;-58
2021/06/08 02:53:10;;;;;;;10.68;7.05;;;;;;;;;;1493265;39;20032;-58
2021/06/08 02:54:13;;;;;;;8.52;7.25;;;;;;;;;;1492918;39;20032;-58
2021/06/08 02:55:16;;;;;;;7.97;7.03;;;;;;;;;;1492981;39;20303;-58
2021/06/08 02:56:17;;;;;;;11.65;8.10;;;;;;;;;;1493003;39;20031;-58
2021/06/08 02:57:20;;;;;;;9.85;7.40;;;;;;;;;;1492927;39;20410;-58
2021/06/08 02:58:22;;;;;;;8.65;7.70;;;;;;;;;;1492925;39;20032;-58
2021/06/08 02:59:26;;;;;;;9.80;7.78;;;;;;;;;;1492949;39;20028;-58
2021/06/08 03:00:28;;;;;;;11.05;7.75;;;;;;;;;;1493208;39;20031;-58
2021/06/08 03:01:30;;;;;;;8.82;7.05;;;;;;;;;;1492975;39;20384;-58
2021/06/08 03:02:33;;;;;;;11.00;7.80;;;;;;;;;;1492963;39;20034;-58
2021/06/08 03:03:40;;;;;;;10.48;7.60;;;;;;;;;;1493072;39;20034;-58
2021/06/08 03:04:47;;;;;;;10.02;8.13;;;;;;;;;;1493194;39;20039;-58
2021/06/08 03:05:52;;;;;;;10.10;7.50;;;;;;;;;;1492998;39;20288;-58
2021/06/08 03:06:55;;;;;;;11.63;7.00;;;;;;;;;;1493310;39;20063;-58
2021/06/08 03:07:59;;;;;;;10.20;7.70;;;;;;;;;;1492868;39;20035;-58
2021/06/08 03:09:04;;;;;;;9.13;7.70;;;;;;;;;;1493105;39;20028;-58
2021/06/08 03:10:08;;;;;;;8.20;7.40;;;;;;;;;;1492914;39;20072;-58
2021/06/08 03:11:16;;;;;;;9.63;6.88;;;;;;;;;;1492877;39;20032;-58
2021/06/08 03:12:21;;;;;;;9.90;7.38;;;;;;;;;;1493133;39;20032;-58
2021/06/08 03:13:23;;;;;;;11.32;8.10;;;;;;;;;;1493064;39;20032;-58
2021/06/08 03:14:25;;;;;;;9.82;7.55;;;;;;;;;;1493120;39;20024;-58
2021/06/08 03:15:30;;;;;;;10.68;7.30;;;;;;;;;;1493129;39;20024;-58
2021/06/08 03:16:34;;;;;;;8.73;7.07;;;;;;;;;;1493091;39;20036;-58
2021/06/08 03:17:38;;;;;;;11.38;7.88;;;;;;;;;;1492893;39;20568;-58
2021/06/08 03:18:42;;;;;;;9.38;7.22;;;;;;;;;;1492921;39;20375;-58
2021/06/08 03:19:45;;;;;;;9.23;7.55;;;;;;;;;;1492983;39;20031;-58
2021/06/08 03:20:54;;;;;;;8.05;7.25;;;;;;;;;;1493108;39;20023;-58
2021/06/08 03:21:58;;;;;;;8.85;6.97;;;;;;;;;;1493034;39;20394;-58
2021/06/08 03:23:01;;;;;;;13.38;7.90;;;;;;;;;;1492946;39;20390;-58
2021/06/08 03:24:07;;;;;;;11.23;7.88;;;;;;;;;;1493051;39;20032;-58
2021/06/08 03:25:10;;;;;;;11.40;7.57;;;;;;;;;;1492874;39;20031;-58
2021/06/08 03:26:14;;;;;;;11.13;7.53;;;;;;;;;;1492847;39;20035;-58
2021/06/08 03:27:17;;;;;;;9.48;8.45;;;;;;;;;;1492417;39;20028;-58
2021/06/08 03:28:20;;;;;;;9.30;7.10;;;;;;;;;;1492549;39;20031;-58
2021/06/08 03:29:23;;;;;;;9.80;7.00;;;;;;;;;;1493089;39;20039;-58
2021/06/08 03:30:25;;;;;;;7.68;6.88;;;;;;;;;;1493048;39;20019;-58
2021/06/08 03:31:27;;;;;;;9.27;7.57;;;;;;;;;;1492842;39;20295;-58
2021/06/08 03:32:28;;;;;;;8.52;6.90;;;;;;;;;;1493012;39;20027;-58
2021/06/08 03:33:33;;;;;;;8.32;7.25;;;;;;;;;;1492788;39;20044;-58
2021/06/08 03:34:36;;;;;;;10.18;7.55;;;;;;;;;;1493058;39;20027;-58
2021/06/08 03:35:38;;;;;;;10.20;7.95;;;;;;;;;;1493053;39;20024;-58
2021/06/08 03:36:39;;;;;;;8.85;7.03;;;;;;;;;;1493032;39;20136;-58
2021/06/08 03:37:42;;;;;;;8.68;7.70;;;;;;;;;;1493022;39;20035;-58
2021/06/08 03:38:44;;;;;;;9.30;7.50;;;;;;;;;;1493072;39;20034;-58
2021/06/08 03:39:47;;;;;;;9.50;7.82;;;;;;;;;;1493065;39;20024;-58
2021/06/08 03:40:48;;;;;;;8.32;6.78;;;;;;;;;;1492963;39;20034;-58
2021/06/08 03:41:52;;;;;;;8.30;7.10;;;;;;;;;;1492820;39;20044;-58
2021/06/08 03:42:54;;;;;;;7.97;6.72;;;;;;;;;;1492838;39;20306;-58
2021/06/08 03:43:55;;;;;;;7.97;7.18;;;;;;;;;;1492995;39;20024;-58
2021/06/08 03:44:57;;;;;;;9.13;7.07;;;;;;;;;;1492957;39;20441;-58
2021/06/08 03:45:58;;;;;;;9.45;7.72;;;;;;;;;;1492921;39;20032;-58
2021/06/08 03:47:00;;;;;;;9.95;8.05;;;;;;;;;;1492882;39;20052;-58
2021/06/08 03:48:02;;;;;;;10.05;7.68;;;;;;;;;;1492847;39;20032;-59
2021/06/08 03:49:03;;;;;;;9.32;7.47;;;;;;;;;;1492828;39;20120;-58
2021/06/08 03:50:06;;;;;;;10.25;7.60;;;;;;;;;;1492887;39;20306;-58
2021/06/08 03:51:07;;;;;;;9.95;7.70;;;;;;;;;;1492775;39;20076;-57
2021/06/08 03:52:08;;;;;;;8.63;6.65;;;;;;;;;;1492994;39;20113;-58
2021/06/08 03:53:10;;;;;;;10.50;7.60;;;;;;;;;;1492941;39;20058;-58
2021/06/08 03:54:11;;;;;;;9.77;6.80;;;;;;;;;;1493049;39;20028;-57
2021/06/08 03:55:13;;;;;;;9.15;7.50;;;;;;;;;;1493009;39;20032;-57
2021/06/08 03:56:16;;;;;;;10.48;8.02;;;;;;;;;;1493008;39;20031;-57
2021/06/08 03:57:27;;;;;;;10.88;7.97;;;;;;;;;;1493069;39;20043;-57
2021/06/08 03:58:30;;;;;;;7.88;6.55;;;;;;;;;;1492962;39;20145;-57
2021/06/08 03:59:33;;;;;;;11.00;6.95;;;;;;;;;;1492830;39;20027;-57
2021/06/08 04:00:35;;;;;;;9.13;7.03;;;;;;;;;;1492959;39;20036;-57
2021/06/08 04:01:37;;;;;;;9.48;6.95;;;;;;;;;;1492817;39;20406;-58
2021/06/08 04:02:38;;;;;;;9.48;7.82;;;;;;;;;;1492997;39;20032;-57
2021/06/08 04:03:41;;;;;;;9.13;7.40;;;;;;;;;;1492911;39;20036;-57
2021/06/08 04:04:42;;;;;;;9.63;7.53;;;;;;;;;;1492789;39;20034;-58
2021/06/08 04:05:46;;;;;;;11.05;7.68;;;;;;;;;;1492816;39;20027;-57
2021/06/08 04:06:47;;;;;;;9.00;8.10;;;;;;;;;;1492737;39;20028;-57
2021/06/08 04:07:49;;;;;;;9.15;7.80;;;;;;;;;;1492897;39;20322;-57
2021/06/08 04:08:50;;;;;;;9.52;7.50;;;;;;;;;;1492922;39;20044;-57
2021/06/08 04:09:51;;;;;;;10.13;7.43;;;;;;;;;;1493023;39;20032;-57
2021/06/08 04:10:52;;;;;;;9.68;7.38;;;;;;;;;;1493066;39;20092;-57
2021/06/08 04:11:54;;;;;;;9.07;6.75;;;;;;;;;;1492756;39;20039;-58
2021/06/08 04:13:00;;;;;;;9.15;7.00;;;;;;;;;;1492728;39;20038;-58
2021/06/08 04:14:03;;;;;;;13.43;7.55;;;;;;;;;;1492987;39;20039;-58
2021/06/08 04:15:05;;;;;;;11.63;7.25;;;;;;;;;;1492752;39;20031;-57
2021/06/08 04:16:09;;;;;;;11.57;7.38;;;;;;;;;;1492775;39;20291;-57
2021/06/08 04:17:10;;;;;;;9.88;7.15;;;;;;;;;;1492935;39;20113;-57
2021/06/08 04:18:12;;;;;;;7.93;6.32;;;;;;;;;;1492783;39;20032;-57
2021/06/08 04:19:13;;;;;;;8.05;7.20;;;;;;;;;;1492759;39;20032;-57
2021/06/08 04:20:15;;;;;;;9.80;7.30;;;;;;;;;;1492923;39;20027;-58
2021/06/08 04:21:16;;;;;;;9.55;7.43;;;;;;;;;;1492702;39;20036;-57
2021/06/08 04:22:30;;;;;;;8.05;7.22;;;;;;;;;;1492734;39;20387;-57
2021/06/08 04:23:31;;;;;;;10.63;7.40;;;;;;;;;;1492933;39;20028;-57
2021/06/08 04:24:33;;;;;;;9.18;7.30;;;;;;;;;;1492820;39;20024;-58
2021/06/08 04:25:34;;;;;;;8.95;6.80;;;;;;;;;;1492886;39;20032;-58
2021/06/08 04:26:36;;;;;;;8.13;7.22;;;;;;;;;;1492791;39;20054;-57
2021/06/08 04:27:37;;;;;;;9.02;7.43;;;;;;;;;;1492692;39;20028;-57
2021/06/08 04:28:39;;;;;;;10.25;7.78;;;;;;;;;;1492667;39;20040;-58
2021/06/08 04:29:41;;;;;;;10.15;7.72;;;;;;;;;;1492959;39;20031;-58
2021/06/08 04:30:43;;;;;;;9.35;7.57;;;;;;;;;;1492737;39;20411;-57
2021/06/08 04:31:43;;;;;;;8.63;7.20;;;;;;;;;;1492389;39;20149;-58
2021/06/08 04:32:46;;;;;;;9.40;7.97;;;;;;;;;;1492860;39;20035;-58
2021/06/08 04:33:48;;;;;;;9.07;7.10;;;;;;;;;;1492730;39;20031;-57
2021/06/08 04:34:50;;;;;;;10.40;7.13;;;;;;;;;;1492896;39;20031;-57
2021/06/08 04:35:51;;;;;;;8.23;7.20;;;;;;;;;;1492752;39;20027;-58
2021/06/08 04:36:53;;;;;;;9.82;6.88;;;;;;;;;;1492731;39;20322;-57
2021/06/08 04:37:54;;;;;;;8.10;7.28;;;;;;;;;;1492640;39;20299;-57
2021/06/08 04:38:55;;;;;;;7.55;6.70;;;;;;;;;;1492680;39;20084;-57
2021/06/08 04:39:56;;;;;;;10.82;7.57;;;;;;;;;;1492885;39;20024;-57
2021/06/08 04:40:59;;;;;;;9.93;7.22;;;;;;;;;;1492153;39;20036;-57
2021/06/08 04:42:00;;;;;;;11.98;7.43;;;;;;;;;;1492248;39;20314;-57
2021/06/08 04:43:01;;;;;;;12.52;8.05;;;;;;;;;;1492737;39;20311;-57
2021/06/08 04:44:04;;;;;;;9.50;7.10;;;;;;;;;;1492803;39;20031;-58
2021/06/08 04:45:06;;;;;;;8.93;6.80;;;;;;;;;;1492849;39;20032;-57
2021/06/08 04:46:11;;;;;;;8.38;6.93;;;;;;;;;;1492653;39;20368;-57
2021/06/08 04:47:13;;;;;;;9.27;7.40;;;;;;;;;;1492760;39;20023;-57
2021/06/08 04:48:14;;;;;;;9.52;7.13;;;;;;;;;;1492770;39;20039;-58
2021/06/08 04:49:16;;;;;;;9.43;6.60;;;;;;;;;;1492610;39;20067;-57
2021/06/08 04:50:17;;;;;;;8.40;6.93;;;;;;;;;;1492853;39;20101;-57
2021/06/08 04:51:20;;;;;;;6.93;6.00;;;;;;;;;;1492826;39;20040;-58
2021/06/08 04:52:21;;;;;;;11.05;7.47;;;;;;;;;;1492830;39;20112;-57
2021/06/08 04:53:22;;;;;;;8.88;7.35;;;;;;;;;;1492581;39;20376;-57
2021/06/08 04:54:25;;;;;;;9.30;7.00;;;;;;;;;;1492713;39;20085;-58
2021/06/08 04:55:26;;;;;;;9.18;6.95;;;;;;;;;;1492795;39;20048;-57
2021/06/08 04:56:27;;;;;;;10.13;7.05;;;;;;;;;;1492750;39;20028;-57
2021/06/08 04:57:29;;;;;;;10.73;7.13;;;;;;;;;;1492632;39;20028;-57
2021/06/08 04:58:30;;;;;;;10.90;7.28;;;;;;;;;;1492622;39;20128;-57
2021/06/08 04:59:37;;;;;;;10.48;7.05;;;;;;;;;;1492763;39;20116;-58
2021/06/08 05:00:42;;;;;;;9.73;7.15;;;;;;;;;;1492607;39;20035;-58
2021/06/08 05:01:44;;;;;;;10.45;7.38;;;;;;;;;;1492611;39;20028;-58
2021/06/08 05:02:51;;;;;;;11.18;7.97;;;;;;;;;;1492800;39;20104;-58
2021/06/08 05:03:57;;;;;;;7.95;7.15;;;;;;;;;;1492672;39;20071;-58
2021/06/08 05:05:03;;;;;;;10.32;8.82;;;;;;;;;;1492759;39;20031;-58
2021/06/08 05:06:08;;;;;;;10.05;8.43;;;;;;;;;;1492593;39;20112;-58
2021/06/08 05:07:13;;;;;;;10.10;8.25;;;;;;;;;;1492772;39;20032;-58
2021/06/08 05:08:20;;;;;;;10.15;8.48;;;;;;;;;;1492687;39;20040;-58
2021/06/08 05:09:24;;;;;;;12.40;8.25;;;;;;;;;;1492830;39;20113;-58
2021/06/08 05:10:28;;;;;;;10.70;8.13;;;;;;;;;;1492724;39;20040;-58
2021/06/08 05:11:34;;;;;;;10.32;7.97;;;;;;;;;;1492737;39;20024;-58
2021/06/08 05:12:36;;;;;;;11.02;8.38;;;;;;;;;;1492732;39;20036;-58
2021/06/08 05:13:38;;;;;;;10.60;8.70;;;;;;;;;;1492539;39;20397;-57
2021/06/08 05:14:45;;;;;;;11.95;9.43;;;;;;;;;;1492794;39;20059;-57
2021/06/08 05:15:50;;;;;;;12.32;8.57;;;;;;;;;;1492673;39;20302;-58
2021/06/08 05:16:52;;;;;;;12.05;9.27;;;;;;;;;;1492555;39;20035;-58
2021/06/08 05:17:55;;;;;;;10.77;8.50;;;;;;;;;;1492533;39;20032;-58
2021/06/08 05:18:58;;;;;;;11.07;9.23;;;;;;;;;;1492792;39;20039;-58
2021/06/08 05:20:00;;;;;;;11.35;9.23;;;;;;;;;;1492722;39;20032;-58
2021/06/08 05:21:02;;;;;;;12.93;9.00;;;;;;;;;;1492769;39;20028;-58
2021/06/08 05:22:04;;;;;;;9.90;8.90;;;;;;;;;;1492665;39;20124;-58
2021/06/08 05:23:06;;;;;;;9.70;8.70;;;;;;;;;;1492739;39;20028;-58
2021/06/08 05:24:10;;;;;;;9.57;7.95;;;;;;;;;;1492504;39;20073;-57
2021/06/08 05:25:12;;;;;;;11.32;9.05;;;;;;;;;;1492530;39;20426;-58
2021/06/08 05:26:14;;;;;;;11.82;9.90;;;;;;;;;;1492505;39;20081;-58
2021/06/08 05:27:15;;;;;;;12.10;10.43;;;;;;;;;;1492797;39;20028;-58
2021/06/08 05:28:17;;;;;;;12.93;11.43;;;;;;;;;;1492683;39;20040;-58
2021/06/08 05:29:19;;;;;;;16.33;12.15;;;;;;;;;;1492698;39;20027;-58
2021/06/08 05:30:23;;;;;;;14.00;11.00;;;;;;;;;;1492606;39;20361;-58
2021/06/08 05:31:24;;;;;;;14.95;10.80;;;;;;;;;;1492554;39;20028;-58
2021/06/08 05:32:26;;;;;;;15.40;10.07;;;;;;;;;;1492689;39;20035;-58
2021/06/08 05:33:26;;;;;;;13.10;9.82;;;;;;;;;;1492500;39;20036;-58
2021/06/08 05:34:28;;;;;;;13.57;11.40;;;;;;;;;;1492114;39;20064;-58
2021/06/08 05:35:30;;;;;;;14.65;11.52;;;;;;;;;;1492063;39;20028;-58
2021/06/08 05:36:31;;;;;;;13.85;11.20;;;;;;;;;;1492812;39;20024;-59
2021/06/08 05:37:40;;;;;;;13.38;11.98;;;;;;;;;;1492704;39;20032;-58
2021/06/08 05:38:43;;;;;;;13.52;11.93;;;;;;;;;;1492666;39;20035;-58
2021/06/08 05:39:45;;;;;;;15.07;11.23;;;;;;;;;;1492654;39;20032;-58
2021/06/08 05:40:46;;;;;;;12.43;11.02;;;;;;;;;;1492639;39;20036;-59
2021/06/08 05:41:47;;;;;;;15.57;12.05;;;;;;;;;;1492676;39;20035;-58
2021/06/08 05:42:49;;;;;;;14.30;12.05;;;;;;;;;;1492477;39;20035;-58
2021/06/08 05:43:49;;;;;;;16.23;12.43;;;;;;;;;;1493094;39;20023;-58
2021/06/08 05:44:52;;;;;;;13.88;12.40;;;;;;;;;;1493362;39;20047;-58
2021/06/08 05:45:55;;;;;;;14.38;11.25;;;;;;;;;;1493447;39;20028;-58
2021/06/08 05:46:56;;;;;;;13.93;11.80;;;;;;;;;;1493162;39;20028;-58
2021/06/08 05:47:58;;;;;;;13.43;11.57;;;;;;;;;;1493130;39;20032;-58
2021/06/08 05:48:59;;;;;;;16.13;11.63;;;;;;;;;;1493326;39;20031;-59
2021/06/08 05:50:01;;;;;;;13.55;11.95;;;;;;;;;;1493350;39;20031;-59
2021/06/08 05:51:05;;;;;;;15.95;12.00;;;;;;;;;;1493122;39;20387;-58
2021/06/08 05:52:07;;;;;;;15.00;12.05;;;;;;;;;;1493321;39;20031;-58
2021/06/08 05:53:09;;;;;;;13.48;12.07;;;;;;;;;;1493188;39;20144;-58
2021/06/08 05:54:10;;;;;;;12.52;11.00;;;;;;;;;;1493229;39;20020;-60
2021/06/08 05:55:12;;;;;;;17.25;12.70;;;;;;;;;;1493403;39;20036;-59
2021/06/08 05:56:14;;;;;;;16.30;11.93;;;;;;;;;;1493368;39;20028;-59
2021/06/08 05:57:15;;;;;;;14.35;12.85;;;;;;;;;;1492667;39;20387;-58
2021/06/08 05:58:21;;;;;;;13.05;11.65;;;;;;;;;;1492598;39;20159;-60
2021/06/08 05:59:23;;;;;;;12.77;11.40;;;;;;;;;;1492776;39;20040;-59
2021/06/08 06:00:24;;;;;;;13.60;12.02;;;;;;;;;;1492622;39;20031;-58
2021/06/08 06:01:27;;;;;;;13.23;11.82;;;;;;;;;;1493530;39;20035;-58
2021/06/08 06:02:29;;;;;;;13.90;11.98;;;;;;;;;;1493103;39;20128;-58
2021/06/08 06:03:30;;;;;;;15.35;12.60;;;;;;;;;;1493368;39;20080;-58
2021/06/08 06:04:32;;;;;;;15.10;12.10;;;;;;;;;;1493322;39;20028;-58
2021/06/08 06:05:36;;;;;;;15.10;11.90;;;;;;;;;;1493321;39;20031;-58
2021/06/08 06:06:39;;;;;;;14.02;11.52;;;;;;;;;;1493322;39;20032;-58
2021/06/08 06:07:40;;;;;;;14.43;12.88;;;;;;;;;;1493133;39;20031;-58
2021/06/08 06:08:41;;;;;;;16.10;13.55;;;;;;;;;;1493227;39;20036;-58
2021/06/08 06:09:43;;;;;;;13.80;12.30;;;;;;;;;;1493142;39;20388;-58
2021/06/08 06:10:44;;;;;;;13.77;12.15;;;;;;;;;;1493301;39;20034;-58
2021/06/08 06:11:49;;;;;;;14.13;12.45;;;;;;;;;;1493245;39;20050;-58
2021/06/08 06:12:52;;;;;;;14.65;12.77;;;;;;;;;;1493050;39;20394;-58